Time;durP1;ratioP1;P1;durP2;ratioP2;P2;SDS_P1;SDS_P2;PMS_P1;PMS_P2;Temp;Humidity;BMP_temperature;BMP_pressure;BME280_temperature;BME280_humidity;BME280_pressure;Samples;Min_cycle;Max_cycle;Signal;HPM_P1;HPM_P2
2022/06/29 00:02:09;;;;;;;56.15;26.50;;;;;;;;;;4975983;28;20078;-64
2022/06/29 00:04:36;;;;;;;57.15;25.77;;;;;;;;;;4975240;28;20045;-64
2022/06/29 00:07:02;;;;;;;52.50;27.90;;;;;;;;;;4975377;28;20125;-64
2022/06/29 00:09:29;;;;;;;44.15;27.38;;;;;;;;;;4975188;28;20109;-63
2022/06/29 00:11:56;;;;;;;57.20;26.73;;;;;;;;;;4975282;28;20122;-63
2022/06/29 00:14:22;;;;;;;40.60;27.48;;;;;;;;;;4971441;28;20055;-62
2022/06/29 00:16:49;;;;;;;110.65;31.63;;;;;;;;;;4975290;28;20150;-62
2022/06/29 00:19:15;;;;;;;37.58;26.80;;;;;;;;;;4974233;28;20073;-65
2022/06/29 00:21:42;;;;;;;47.40;27.02;;;;;;;;;;4990053;28;20046;-64
2022/06/29 00:24:08;;;;;;;56.40;27.17;;;;;;;;;;4974995;28;20586;-64
2022/06/29 00:26:35;;;;;;;60.88;29.25;;;;;;;;;;4974898;28;20047;-63
2022/06/29 00:29:02;;;;;;;55.03;28.23;;;;;;;;;;4973791;28;20074;-63
2022/06/29 00:31:28;;;;;;;42.95;26.45;;;;;;;;;;4975073;28;20050;-63
2022/06/29 00:33:55;;;;;;;48.55;26.25;;;;;;;;;;4973761;28;20089;-65
2022/06/29 00:36:21;;;;;;;55.72;26.52;;;;;;;;;;4975036;28;20093;-66
2022/06/29 00:38:48;;;;;;;38.13;24.95;;;;;;;;;;4974975;28;20062;-66
2022/06/29 00:41:15;;;;;;;42.45;24.88;;;;;;;;;;4975454;28;20057;-67
2022/06/29 00:43:42;;;;;;;43.53;26.83;;;;;;;;;;4974388;28;20053;-68
2022/06/29 00:46:09;;;;;;;51.22;27.90;;;;;;;;;;4974999;28;20035;-65
2022/06/29 00:48:36;;;;;;;50.42;26.67;;;;;;;;;;4974228;28;20031;-64
2022/06/29 00:51:03;;;;;;;69.57;28.17;;;;;;;;;;4989430;28;20088;-65
2022/06/29 00:53:32;;;;;;;51.85;28.35;;;;;;;;;;4974707;28;20089;-66
2022/06/29 00:55:59;;;;;;;53.03;29.13;;;;;;;;;;4975314;28;20075;-67
2022/06/29 00:58:27;;;;;;;60.92;27.20;;;;;;;;;;4974213;28;20133;-66
2022/06/29 01:00:55;;;;;;;38.22;25.40;;;;;;;;;;4974569;28;20499;-67
2022/06/29 01:03:22;;;;;;;37.47;23.60;;;;;;;;;;4972893;28;20061;-67
2022/06/29 01:05:48;;;;;;;73.18;27.02;;;;;;;;;;4974363;28;20474;-68
2022/06/29 01:08:15;;;;;;;44.78;22.67;;;;;;;;;;4973854;28;20058;-67
2022/06/29 01:10:41;;;;;;;35.92;22.42;;;;;;;;;;4973970;28;20039;-66
2022/06/29 01:13:09;;;;;;;53.75;21.95;;;;;;;;;;4972541;28;20400;-64
2022/06/29 01:15:36;;;;;;;33.30;19.83;;;;;;;;;;4974308;28;20118;-65
2022/06/29 01:18:03;;;;;;;41.42;19.83;;;;;;;;;;4973890;28;20411;-65
2022/06/29 01:20:29;;;;;;;58.33;19.40;;;;;;;;;;4974223;28;20039;-65
2022/06/29 01:22:56;;;;;;;29.90;15.77;;;;;;;;;;4974332;28;20125;-63
2022/06/29 01:25:22;;;;;;;39.70;16.20;;;;;;;;;;4973914;28;20038;-62
2022/06/29 01:27:49;;;;;;;55.70;17.70;;;;;;;;;;4973933;28;20039;-64
2022/06/29 01:30:16;;;;;;;27.75;16.73;;;;;;;;;;4972908;28;20098;-64
2022/06/29 01:32:43;;;;;;;53.28;18.13;;;;;;;;;;4973772;28;20039;-63
2022/06/29 01:35:11;;;;;;;57.03;18.40;;;;;;;;;;4974160;28;20134;-63
2022/06/29 01:37:40;;;;;;;33.33;17.08;;;;;;;;;;4973503;28;20408;-66
2022/06/29 01:40:08;;;;;;;78.78;19.85;;;;;;;;;;4973350;28;20046;-66
2022/06/29 01:42:35;;;;;;;58.10;18.23;;;;;;;;;;4973479;28;20504;-67
2022/06/29 01:45:02;;;;;;;41.63;17.40;;;;;;;;;;4973815;28;20050;-66
2022/06/29 01:47:28;;;;;;;32.85;17.60;;;;;;;;;;4972529;28;20049;-66
2022/06/29 01:49:55;;;;;;;52.70;19.85;;;;;;;;;;4973527;28;20043;-67
2022/06/29 01:52:21;;;;;;;50.35;21.05;;;;;;;;;;4973369;28;20082;-65
2022/06/29 01:54:48;;;;;;;48.28;20.23;;;;;;;;;;4973602;28;20130;-64
2022/06/29 01:57:14;;;;;;;57.75;21.38;;;;;;;;;;4973146;28;20039;-66
2022/06/29 01:59:41;;;;;;;53.00;22.55;;;;;;;;;;4973477;28;20050;-62
2022/06/29 02:02:08;;;;;;;54.15;23.33;;;;;;;;;;4974137;28;20095;-63
2022/06/29 02:04:34;;;;;;;62.40;23.60;;;;;;;;;;4987702;28;20047;-63
2022/06/29 02:07:01;;;;;;;67.75;24.65;;;;;;;;;;4973207;28;20043;-65
2022/06/29 02:09:28;;;;;;;40.72;22.70;;;;;;;;;;4973331;28;20062;-65
2022/06/29 02:11:54;;;;;;;55.30;24.35;;;;;;;;;;4971563;28;20069;-64
2022/06/29 02:14:21;;;;;;;41.22;23.17;;;;;;;;;;4972404;28;20063;-65
2022/06/29 02:16:47;;;;;;;44.88;24.67;;;;;;;;;;4973196;28;20134;-66
2022/06/29 02:19:14;;;;;;;50.55;24.35;;;;;;;;;;4972469;28;20073;-64
2022/06/29 02:21:41;;;;;;;44.25;25.25;;;;;;;;;;4973017;28;20049;-64
2022/06/29 02:24:07;;;;;;;51.25;25.05;;;;;;;;;;4972847;28;20125;-63
2022/06/29 02:26:34;;;;;;;57.88;24.55;;;;;;;;;;4972980;28;20066;-63
2022/06/29 02:29:00;;;;;;;65.85;27.08;;;;;;;;;;4973442;28;20050;-64
2022/06/29 02:36:57;;;;;;;68.60;26.08;;;;;;;;;;4972276;28;20085;-65
2022/06/29 02:39:24;;;;;;;61.17;25.70;;;;;;;;;;4972297;28;20070;-66
2022/06/29 02:41:50;;;;;;;46.10;24.20;;;;;;;;;;4972973;28;20039;-66
2022/06/29 02:44:17;;;;;;;41.85;22.92;;;;;;;;;;4973317;28;20089;-66
2022/06/29 02:46:43;;;;;;;61.25;23.95;;;;;;;;;;4972352;28;20042;-65
2022/06/29 02:49:10;;;;;;;49.13;23.35;;;;;;;;;;4972445;28;20049;-65
2022/06/29 02:51:36;;;;;;;38.28;21.40;;;;;;;;;;4972427;28;20126;-65
2022/06/29 02:54:03;;;;;;;78.53;24.77;;;;;;;;;;4971923;28;20041;-65
2022/06/29 02:56:30;;;;;;;35.45;22.08;;;;;;;;;;4972071;28;20093;-66
2022/06/29 02:58:56;;;;;;;60.35;23.42;;;;;;;;;;4972674;28;20092;-64
2022/06/29 03:01:23;;;;;;;60.38;24.27;;;;;;;;;;4972341;28;20117;-63
2022/06/29 03:03:49;;;;;;;40.95;22.67;;;;;;;;;;4972031;28;20097;-63
2022/06/29 03:06:16;;;;;;;58.75;25.70;;;;;;;;;;4972263;28;20588;-64
2022/06/29 03:08:42;;;;;;;66.47;25.17;;;;;;;;;;4971926;28;20135;-64
2022/06/29 03:11:11;;;;;;;52.85;22.67;;;;;;;;;;4970818;28;20054;-64
2022/06/29 03:13:37;;;;;;;41.63;21.80;;;;;;;;;;4970687;28;20066;-64
2022/06/29 03:16:04;;;;;;;61.33;23.52;;;;;;;;;;4972275;28;20034;-63
2022/06/29 03:18:31;;;;;;;57.42;23.33;;;;;;;;;;4971800;28;20053;-64
2022/06/29 03:20:57;;;;;;;36.33;21.48;;;;;;;;;;4971029;28;20039;-65
2022/06/29 03:23:24;;;;;;;54.75;22.25;;;;;;;;;;4972151;28;20070;-64
2022/06/29 03:25:50;;;;;;;47.17;22.55;;;;;;;;;;4972213;28;20042;-64
2022/06/29 03:28:17;;;;;;;36.75;22.70;;;;;;;;;;4972521;28;20143;-64
2022/06/29 03:30:44;;;;;;;47.30;22.58;;;;;;;;;;4971823;28;21129;-64
2022/06/29 03:33:10;;;;;;;60.65;24.60;;;;;;;;;;4970295;28;20126;-64
2022/06/29 03:35:37;;;;;;;67.28;24.10;;;;;;;;;;4972106;28;20039;-62
2022/06/29 03:38:03;;;;;;;82.55;24.80;;;;;;;;;;4970601;28;20074;-63
2022/06/29 03:40:30;;;;;;;46.30;22.75;;;;;;;;;;4972261;28;20039;-63
2022/06/29 03:42:57;;;;;;;49.13;23.27;;;;;;;;;;4964281;28;20118;-63
2022/06/29 03:45:23;;;;;;;50.30;23.85;;;;;;;;;;4971857;28;20038;-63
2022/06/29 03:47:50;;;;;;;69.70;25.10;;;;;;;;;;4971824;28;20078;-63
2022/06/29 03:50:17;;;;;;;49.00;20.83;;;;;;;;;;4972642;28;20054;-63
2022/06/29 03:52:44;;;;;;;42.13;21.05;;;;;;;;;;4971605;28;20526;-64
2022/06/29 03:55:10;;;;;;;63.03;22.42;;;;;;;;;;4971638;28;20153;-64
2022/06/29 03:57:37;;;;;;;38.38;21.25;;;;;;;;;;4971924;28;20077;-63
2022/06/29 04:00:03;;;;;;;49.95;21.30;;;;;;;;;;4971941;28;20065;-64
2022/06/29 04:02:37;;;;;;;64.53;23.70;;;;;;;;;;4971608;28;20058;-62
2022/06/29 04:05:04;;;;;;;69.82;24.77;;;;;;;;;;4971845;28;20042;-62
2022/06/29 04:07:31;;;;;;;45.00;22.38;;;;;;;;;;4986733;28;20085;-63
2022/06/29 04:10:00;;;;;;;79.25;23.85;;;;;;;;;;4975394;28;20039;-63
2022/06/29 04:12:31;;;;;;;44.08;22.88;;;;;;;;;;4975239;28;20070;-62
2022/06/29 04:14:57;;;;;;;60.33;23.30;;;;;;;;;;4975490;28;20038;-63
2022/06/29 04:17:24;;;;;;;32.30;19.85;;;;;;;;;;4975824;28;20038;-65
2022/06/29 04:19:51;;;;;;;49.08;23.25;;;;;;;;;;4973491;28;20061;-65
2022/06/29 04:22:18;;;;;;;54.10;24.83;;;;;;;;;;4973726;28;20070;-63
2022/06/29 04:24:45;;;;;;;59.65;24.55;;;;;;;;;;4975244;28;20121;-64
2022/06/29 04:27:11;;;;;;;62.10;25.10;;;;;;;;;;4975092;28;20065;-63
2022/06/29 04:29:38;;;;;;;71.50;25.50;;;;;;;;;;4975401;28;20042;-62
2022/06/29 04:32:05;;;;;;;54.15;25.77;;;;;;;;;;4974314;28;20047;-62
2022/06/29 04:34:37;;;;;;;40.58;23.20;;;;;;;;;;4974493;28;20407;-63
2022/06/29 04:37:03;;;;;;;66.25;24.05;;;;;;;;;;4974513;28;20496;-65
2022/06/29 04:39:30;;;;;;;38.88;23.27;;;;;;;;;;4975328;28;20046;-67
2022/06/29 04:41:56;;;;;;;58.03;24.70;;;;;;;;;;4973477;28;20069;-65
2022/06/29 04:44:25;;;;;;;60.05;24.05;;;;;;;;;;4975086;28;20043;-66
2022/06/29 04:46:55;;;;;;;49.90;24.42;;;;;;;;;;4974772;28;20131;-67
2022/06/29 04:49:22;;;;;;;40.67;25.38;;;;;;;;;;4974344;28;20039;-67
2022/06/29 04:51:49;;;;;;;75.93;27.15;;;;;;;;;;4974309;28;20126;-67
2022/06/29 04:54:16;;;;;;;63.85;27.58;;;;;;;;;;4974477;28;20043;-67
2022/06/29 04:56:42;;;;;;;67.82;27.35;;;;;;;;;;4973482;28;20138;-67
2022/06/29 04:59:09;;;;;;;70.53;27.40;;;;;;;;;;4974713;28;20500;-66
2022/06/29 05:01:35;;;;;;;42.22;25.80;;;;;;;;;;4974462;28;20062;-66
2022/06/29 05:04:02;;;;;;;51.90;26.23;;;;;;;;;;4973745;28;20047;-66
2022/06/29 05:06:29;;;;;;;52.65;26.58;;;;;;;;;;4974152;28;20110;-64
2022/06/29 05:08:56;;;;;;;52.28;25.27;;;;;;;;;;4974329;28;20051;-62
2022/06/29 05:11:23;;;;;;;53.00;25.33;;;;;;;;;;4969944;28;20098;-62
2022/06/29 05:13:50;;;;;;;55.90;25.80;;;;;;;;;;4973532;28;20042;-62
2022/06/29 05:16:19;;;;;;;49.58;25.50;;;;;;;;;;4972657;28;20126;-62
2022/06/29 05:18:47;;;;;;;54.47;24.65;;;;;;;;;;4973242;28;20074;-63
2022/06/29 05:21:14;;;;;;;59.80;24.08;;;;;;;;;;4973370;28;20038;-63
2022/06/29 05:23:40;;;;;;;82.18;26.73;;;;;;;;;;4973985;28;20500;-64
2022/06/29 05:26:07;;;;;;;84.72;25.65;;;;;;;;;;4974320;28;20042;-66
2022/06/29 05:28:33;;;;;;;48.83;22.45;;;;;;;;;;4973592;28;20038;-62
2022/06/29 05:31:00;;;;;;;71.50;24.45;;;;;;;;;;4973698;28;20411;-63
2022/06/29 05:33:36;;;;;;;63.03;23.88;;;;;;;;;;4973023;28;20057;-62
2022/06/29 05:36:03;;;;;;;68.03;23.80;;;;;;;;;;4973766;28;20126;-63
2022/06/29 05:38:31;;;;;;;67.65;24.67;;;;;;;;;;4973393;28;20094;-62
2022/06/29 05:40:57;;;;;;;46.95;23.58;;;;;;;;;;4974157;28;20452;-62
2022/06/29 05:43:24;;;;;;;51.25;23.48;;;;;;;;;;4972049;28;20073;-62
2022/06/29 05:45:51;;;;;;;45.00;23.88;;;;;;;;;;4973606;28;20049;-63
2022/06/29 05:48:17;;;;;;;47.97;24.58;;;;;;;;;;4973029;28;20411;-62
2022/06/29 05:50:44;;;;;;;74.63;25.42;;;;;;;;;;4988478;28;20502;-62
2022/06/29 05:53:10;;;;;;;44.00;23.15;;;;;;;;;;4974431;28;20101;-62
2022/06/29 05:55:37;;;;;;;64.78;24.67;;;;;;;;;;4973450;28;20093;-61
2022/06/29 05:58:03;;;;;;;71.75;24.48;;;;;;;;;;4972969;28;20121;-62
2022/06/29 06:00:30;;;;;;;70.93;22.98;;;;;;;;;;4973267;28;20035;-62
2022/06/29 06:02:56;;;;;;;46.83;22.40;;;;;;;;;;4973054;28;20047;-62
2022/06/29 06:05:23;;;;;;;63.13;23.33;;;;;;;;;;4972638;28;20070;-62
2022/06/29 06:07:50;;;;;;;43.75;21.73;;;;;;;;;;4973009;28;20070;-62
2022/06/29 06:10:17;;;;;;;31.45;19.83;;;;;;;;;;4972985;28;20057;-62
2022/06/29 06:12:43;;;;;;;81.47;23.50;;;;;;;;;;4972462;28;20049;-62
2022/06/29 06:15:10;;;;;;;68.78;23.48;;;;;;;;;;4973072;28;20038;-62
2022/06/29 06:17:36;;;;;;;59.38;22.38;;;;;;;;;;4972841;28;20122;-62
2022/06/29 06:20:03;;;;;;;53.10;20.67;;;;;;;;;;4973284;28;20149;-62
2022/06/29 06:22:30;;;;;;;45.35;21.50;;;;;;;;;;4972825;28;20053;-62
2022/06/29 06:24:56;;;;;;;49.65;22.40;;;;;;;;;;4972780;28;20086;-62
2022/06/29 06:27:23;;;;;;;51.03;21.17;;;;;;;;;;4972704;28;20127;-62
2022/06/29 06:29:49;;;;;;;65.35;22.20;;;;;;;;;;4969263;28;20113;-61
2022/06/29 06:32:16;;;;;;;57.08;22.70;;;;;;;;;;4971399;28;20042;-62
2022/06/29 06:34:43;;;;;;;90.93;24.50;;;;;;;;;;4971348;28;20050;-61
2022/06/29 06:37:09;;;;;;;56.53;22.08;;;;;;;;;;4972259;28;20066;-65
2022/06/29 06:39:36;;;;;;;46.08;21.58;;;;;;;;;;4987341;28;20047;-65
2022/06/29 06:42:02;;;;;;;45.80;22.85;;;;;;;;;;4971567;28;20049;-65
2022/06/29 06:44:29;;;;;;;75.25;23.23;;;;;;;;;;4972553;28;20563;-65
2022/06/29 06:46:59;;;;;;;54.80;22.35;;;;;;;;;;4971401;28;20046;-65
2022/06/29 06:49:26;;;;;;;44.17;21.20;;;;;;;;;;4971689;28;20066;-65
2022/06/29 06:51:52;;;;;;;49.28;22.48;;;;;;;;;;4972266;28;20051;-65
2022/06/29 06:54:19;;;;;;;44.80;22.08;;;;;;;;;;4972270;28;20043;-66
2022/06/29 06:56:46;;;;;;;60.33;21.23;;;;;;;;;;4972436;28;20399;-65
2022/06/29 06:59:12;;;;;;;48.15;20.58;;;;;;;;;;4972313;28;20104;-66
2022/06/29 07:01:39;;;;;;;33.65;20.38;;;;;;;;;;4971028;28;20207;-66
2022/06/29 07:04:10;;;;;;;51.60;21.55;;;;;;;;;;4970272;28;20054;-65
2022/06/29 07:06:37;;;;;;;31.63;19.73;;;;;;;;;;4971902;28;20066;-66
2022/06/29 07:09:04;;;;;;;50.15;19.25;;;;;;;;;;4972306;28;20069;-66
2022/06/29 07:11:30;;;;;;;41.97;19.60;;;;;;;;;;4972916;28;20042;-67
2022/06/29 07:13:57;;;;;;;58.33;20.02;;;;;;;;;;4986156;28;20039;-66
2022/06/29 07:16:23;;;;;;;45.78;19.48;;;;;;;;;;4971856;28;20097;-66
2022/06/29 07:18:50;;;;;;;55.28;19.33;;;;;;;;;;4971363;28;20399;-65
2022/06/29 07:21:16;;;;;;;46.40;18.63;;;;;;;;;;4971958;28;20059;-66
2022/06/29 07:23:43;;;;;;;50.17;19.50;;;;;;;;;;4972041;28;20105;-65
2022/06/29 07:26:10;;;;;;;54.28;19.35;;;;;;;;;;4972236;28;20035;-65
2022/06/29 07:28:39;;;;;;;62.50;21.50;;;;;;;;;;4971235;28;20086;-65
2022/06/29 07:31:06;;;;;;;45.13;20.02;;;;;;;;;;4971787;28;20381;-66
2022/06/29 07:33:32;;;;;;;48.17;18.58;;;;;;;;;;4971524;28;20038;-65
2022/06/29 07:35:59;;;;;;;72.32;21.40;;;;;;;;;;4971835;28;20117;-64
2022/06/29 07:38:26;;;;;;;35.30;18.08;;;;;;;;;;4971418;28;20039;-65
2022/06/29 07:40:52;;;;;;;73.85;20.23;;;;;;;;;;4971313;28;20054;-65
2022/06/29 07:43:19;;;;;;;81.35;21.95;;;;;;;;;;4972817;28;20038;-65
2022/06/29 07:45:46;;;;;;;49.67;19.95;;;;;;;;;;4975889;28;20126;-66
2022/06/29 07:48:13;;;;;;;354.23;41.67;;;;;;;;;;4971359;28;20061;-65
2022/06/29 07:50:39;;;;;;;66.97;21.42;;;;;;;;;;4973821;28;20567;-64
2022/06/29 07:53:06;;;;;;;85.35;21.25;;;;;;;;;;4972989;28;20511;-65
2022/06/29 07:55:32;;;;;;;83.80;23.05;;;;;;;;;;4972857;28;20118;-64
2022/06/29 07:57:59;;;;;;;103.47;22.70;;;;;;;;;;4974736;28;20051;-65
2022/06/29 08:00:26;;;;;;;65.18;20.08;;;;;;;;;;4974638;28;20078;-65
2022/06/29 08:02:53;;;;;;;56.20;18.45;;;;;;;;;;4973562;28;20047;-66
2022/06/29 08:05:20;;;;;;;69.70;20.25;;;;;;;;;;4972997;28;20565;-65
2022/06/29 08:07:47;;;;;;;42.58;18.40;;;;;;;;;;4974740;28;20527;-65
2022/06/29 08:10:13;;;;;;;33.03;15.32;;;;;;;;;;4974912;28;20484;-65
2022/06/29 08:12:40;;;;;;;78.50;17.10;;;;;;;;;;4969937;28;20078;-65
2022/06/29 08:15:07;;;;;;;62.83;17.55;;;;;;;;;;4974927;28;20039;-65
2022/06/29 08:17:33;;;;;;;40.38;14.52;;;;;;;;;;4975945;28;20503;-65
2022/06/29 08:20:01;;;;;;;63.25;16.50;;;;;;;;;;4989747;28;20586;-66
2022/06/29 08:22:28;;;;;;;32.45;13.57;;;;;;;;;;4974973;28;20070;-66
2022/06/29 08:24:55;;;;;;;31.58;13.32;;;;;;;;;;4974278;28;20047;-65
2022/06/29 08:27:22;;;;;;;48.42;14.75;;;;;;;;;;4975076;28;20113;-65
2022/06/29 08:30:10;;;;;;;35.38;13.55;;;;;;;;;;4974939;28;20465;-65
2022/06/29 08:32:39;;;;;;;68.45;15.85;;;;;;;;;;4974632;28;20045;-65
2022/06/29 08:35:06;;;;;;;50.33;14.52;;;;;;;;;;4975589;28;20097;-65
2022/06/29 08:37:36;;;;;;;30.83;13.95;;;;;;;;;;4974477;28;20078;-66
2022/06/29 08:40:04;;;;;;;61.83;16.33;;;;;;;;;;4974081;28;20463;-63
2022/06/29 08:42:31;;;;;;;32.05;14.10;;;;;;;;;;4974319;28;20106;-64
2022/06/29 08:44:58;;;;;;;45.80;15.05;;;;;;;;;;4973730;28;20050;-64
2022/06/29 08:47:24;;;;;;;50.47;17.42;;;;;;;;;;4974236;28;20093;-74
2022/06/29 08:49:51;;;;;;;50.83;15.95;;;;;;;;;;4973765;28;20480;-75
2022/06/29 08:52:18;;;;;;;45.08;15.55;;;;;;;;;;4973943;28;20035;-71
2022/06/29 08:54:48;;;;;;;64.68;17.13;;;;;;;;;;4971963;28;20554;-71
2022/06/29 08:57:16;;;;;;;37.83;14.70;;;;;;;;;;4970187;28;20070;-61
2022/06/29 08:59:42;;;;;;;47.92;17.15;;;;;;;;;;4971951;28;20054;-59
2022/06/29 09:02:26;;;;;;;57.05;16.17;;;;;;;;;;4974043;28;20046;-62
2022/06/29 09:04:54;;;;;;;42.25;15.82;;;;;;;;;;4988009;28;20054;-69
2022/06/29 09:07:21;;;;;;;42.88;14.85;;;;;;;;;;4973148;28;20479;-68
2022/06/29 09:10:07;;;;;;;53.33;16.05;;;;;;;;;;4972847;28;20058;-70
2022/06/29 09:12:35;;;;;;;59.45;16.77;;;;;;;;;;4972478;28;20038;-59
2022/06/29 09:15:02;;;;;;;36.40;14.88;;;;;;;;;;4973424;28;20101;-70
2022/06/29 09:17:32;;;;;;;67.53;17.02;;;;;;;;;;4973226;28;20575;-69
2022/06/29 09:19:59;;;;;;;61.53;16.73;;;;;;;;;;4972073;28;20043;-69
2022/06/29 09:22:56;;;;;;;33.58;14.68;;;;;;;;;;4972813;28;20047;-70
2022/06/29 09:25:27;;;;;;;46.67;16.17;;;;;;;;;;4972850;28;20070;-69
2022/06/29 09:27:55;;;;;;;37.47;14.98;;;;;;;;;;4972939;28;20042;-70
2022/06/29 09:30:26;;;;;;;42.22;14.88;;;;;;;;;;4972912;28;20043;-69
2022/06/29 09:33:04;;;;;;;57.88;15.90;;;;;;;;;;4972988;28;20043;-70
2022/06/29 09:35:31;;;;;;;32.30;12.88;;;;;;;;;;4973856;28;20502;-70
2022/06/29 09:38:17;;;;;;;51.15;13.73;;;;;;;;;;4972537;28;20047;-70
2022/06/29 09:41:02;;;;;;;21.45;12.05;;;;;;;;;;4972701;28;20495;-71
2022/06/29 09:43:29;;;;;;;42.97;13.90;;;;;;;;;;4971883;28;20042;-70
2022/06/29 09:45:56;;;;;;;45.00;12.88;;;;;;;;;;4972383;28;20514;-71
2022/06/29 09:48:25;;;;;;;56.40;14.60;;;;;;;;;;4986868;28;20480;-70
2022/06/29 09:50:53;;;;;;;69.80;16.00;;;;;;;;;;4972469;28;20035;-70
2022/06/29 09:53:24;;;;;;;33.65;12.35;;;;;;;;;;4972604;28;20545;-61
2022/06/29 09:55:53;;;;;;;52.85;13.95;;;;;;;;;;4970506;28;20042;-61
2022/06/29 09:58:23;;;;;;;31.15;12.13;;;;;;;;;;4972538;28;20050;-61
2022/06/29 10:03:36;;;;;;;54.72;13.18;;;;;;;;;;4972064;28;20042;-60
2022/06/29 10:06:06;;;;;;;80.53;14.10;;;;;;;;;;4971471;28;20078;-62
2022/06/29 10:08:33;;;;;;;47.78;12.15;;;;;;;;;;4972667;28;20122;-61
2022/06/29 10:13:39;;;;;;;39.70;11.75;;;;;;;;;;4971480;28;20078;-60
2022/06/29 10:13:53;;;;;;;46.80;13.75;;;;;;;;;;4972187;28;20075;-62
2022/06/29 10:16:36;;;;;;;25.40;10.82;;;;;;;;;;4971926;28;20042;-60
2022/06/29 10:19:06;;;;;;;55.53;12.60;;;;;;;;;;4970191;28;20046;-60
2022/06/29 10:21:33;;;;;;;40.13;13.15;;;;;;;;;;4972222;28;20049;-60
2022/06/29 10:24:00;;;;;;;59.08;14.73;;;;;;;;;;4970202;28;20058;-60
2022/06/29 10:26:31;;;;;;;52.30;12.20;;;;;;;;;;4972116;28;20522;-60
2022/06/29 10:29:10;;;;;;;48.40;13.25;;;;;;;;;;4971889;28;20488;-60
2022/06/29 10:31:59;;;;;;;95.55;15.85;;;;;;;;;;4971389;28;20150;-60
2022/06/29 10:34:32;;;;;;;56.92;12.52;;;;;;;;;;4971223;28;20551;-60
2022/06/29 10:37:02;;;;;;;48.13;11.30;;;;;;;;;;4969969;28;20047;-60
2022/06/29 10:39:35;;;;;;;28.50;10.93;;;;;;;;;;4971616;28;20043;-61
2022/06/29 10:45:02;;;;;;;79.90;12.65;;;;;;;;;;4972232;28;20105;-59
2022/06/29 10:47:30;;;;;;;67.50;11.18;;;;;;;;;;4972356;28;20860;-60
2022/06/29 10:50:15;;;;;;;42.90;10.50;;;;;;;;;;4971912;28;20069;-60
2022/06/29 10:52:45;;;;;;;49.78;9.95;;;;;;;;;;4971194;28;20046;-59
2022/06/29 10:55:12;;;;;;;31.92;9.25;;;;;;;;;;4971573;28;20039;-60
2022/06/29 10:57:44;;;;;;;34.42;9.70;;;;;;;;;;4972496;28;20050;-60
2022/06/29 11:00:22;;;;;;;58.15;10.55;;;;;;;;;;4970048;28;20120;-60
2022/06/29 11:02:49;;;;;;;91.47;12.32;;;;;;;;;;4971101;28;20054;-60
2022/06/29 11:05:15;;;;;;;49.45;10.00;;;;;;;;;;4971760;28;20567;-59
2022/06/29 11:13:20;;;;;;;38.35;9.52;;;;;;;;;;4972148;28;20035;-60
2022/06/29 11:15:49;;;;;;;43.05;10.05;;;;;;;;;;4972262;28;20043;-59
2022/06/29 11:18:16;;;;;;;53.05;10.60;;;;;;;;;;4971309;28;20035;-60
2022/06/29 11:20:44;;;;;;;26.83;8.90;;;;;;;;;;4971999;28;20055;-60
2022/06/29 11:23:12;;;;;;;38.65;8.57;;;;;;;;;;4972461;28;20144;-60
2022/06/29 11:25:40;;;;;;;58.67;10.90;;;;;;;;;;4954626;28;20069;-59
2022/06/29 11:28:07;;;;;;;35.58;8.80;;;;;;;;;;4971384;28;20447;-61
2022/06/29 11:30:34;;;;;;;43.67;8.68;;;;;;;;;;4971612;28;20507;-60
2022/06/29 11:33:06;;;;;;;23.73;8.20;;;;;;;;;;4971555;28;20058;-62
2022/06/29 11:35:33;;;;;;;33.55;8.63;;;;;;;;;;4971908;28;20047;-65
2022/06/29 11:38:05;;;;;;;31.83;8.20;;;;;;;;;;4971646;28;20081;-66
2022/06/29 11:40:35;;;;;;;27.20;8.23;;;;;;;;;;4971664;28;20062;-63
2022/06/29 11:43:04;;;;;;;47.03;10.15;;;;;;;;;;4971421;28;20117;-63
2022/06/29 11:45:36;;;;;;;26.88;7.95;;;;;;;;;;4971956;28;20093;-64
2022/06/29 11:48:10;;;;;;;65.85;10.98;;;;;;;;;;4971185;28;20127;-65
2022/06/29 11:50:42;;;;;;;61.33;11.43;;;;;;;;;;4968030;28;20054;-65
2022/06/29 11:53:09;;;;;;;30.13;8.52;;;;;;;;;;4972022;28;20074;-68
2022/06/29 11:55:42;;;;;;;29.00;7.95;;;;;;;;;;4971540;28;20034;-67
2022/06/29 11:58:09;;;;;;;94.38;12.02;;;;;;;;;;4971182;28;20042;-65
2022/06/29 12:00:37;;;;;;;31.90;8.48;;;;;;;;;;4969896;28;20090;-65
2022/06/29 12:03:04;;;;;;;51.15;10.18;;;;;;;;;;4971194;28;20145;-65
2022/06/29 12:05:30;;;;;;;40.88;9.55;;;;;;;;;;4971694;28;20118;-65
2022/06/29 12:07:57;;;;;;;77.30;11.82;;;;;;;;;;4970801;28;20042;-64
2022/06/29 12:10:23;;;;;;;44.22;10.10;;;;;;;;;;4969449;28;20085;-64
2022/06/29 12:12:50;;;;;;;34.15;9.48;;;;;;;;;;4971370;28;20447;-65
2022/06/29 12:15:17;;;;;;;40.33;9.35;;;;;;;;;;4971654;28;20038;-65
2022/06/29 12:17:43;;;;;;;64.50;10.80;;;;;;;;;;4970773;28;20413;-65
2022/06/29 12:20:15;;;;;;;39.38;10.70;;;;;;;;;;4972079;28;20054;-65
2022/06/29 12:23:02;;;;;;;71.03;11.88;;;;;;;;;;4970958;28;20124;-66
2022/06/29 12:25:33;;;;;;;34.63;9.38;;;;;;;;;;4971323;28;20043;-65
2022/06/29 12:28:00;;;;;;;42.35;10.35;;;;;;;;;;4971397;28;20504;-65
2022/06/29 12:30:27;;;;;;;33.38;9.15;;;;;;;;;;4972721;28;20435;-65
2022/06/29 12:32:53;;;;;;;54.67;11.57;;;;;;;;;;4974401;28;20109;-65
2022/06/29 12:35:20;;;;;;;28.85;9.13;;;;;;;;;;4975742;28;20054;-65
2022/06/29 12:37:46;;;;;;;57.85;11.57;;;;;;;;;;4974554;28;20071;-65
2022/06/29 12:40:13;;;;;;;38.33;9.68;;;;;;;;;;4973249;28;20085;-64
2022/06/29 12:42:40;;;;;;;32.20;8.98;;;;;;;;;;4974567;28;20045;-64
2022/06/29 12:45:07;;;;;;;53.60;10.68;;;;;;;;;;4974736;28;20046;-66
2022/06/29 12:47:33;;;;;;;36.60;9.48;;;;;;;;;;4974668;28;20039;-64
2022/06/29 12:50:00;;;;;;;41.60;10.07;;;;;;;;;;4973091;28;20055;-64
2022/06/29 12:52:27;;;;;;;46.95;9.55;;;;;;;;;;4974417;28;20483;-62
2022/06/29 12:54:53;;;;;;;22.30;8.48;;;;;;;;;;4973132;28;20499;-63
2022/06/29 12:57:20;;;;;;;41.10;9.10;;;;;;;;;;4974533;28;20116;-63
2022/06/29 12:59:47;;;;;;;66.90;11.27;;;;;;;;;;4974292;28;20089;-63
2022/06/29 13:02:14;;;;;;;22.25;7.95;;;;;;;;;;4974556;28;20093;-65
2022/06/29 13:04:41;;;;;;;63.38;10.70;;;;;;;;;;4974092;28;20035;-65
2022/06/29 13:07:07;;;;;;;55.55;9.75;;;;;;;;;;4974024;28;20042;-64
2022/06/29 13:09:34;;;;;;;64.88;10.63;;;;;;;;;;4974480;28;20084;-62
2022/06/29 13:12:01;;;;;;;43.67;8.70;;;;;;;;;;4989342;28;20055;-63
2022/06/29 13:14:27;;;;;;;159.57;16.17;;;;;;;;;;4974589;28;20098;-62
2022/06/29 13:16:54;;;;;;;32.50;7.65;;;;;;;;;;4988475;28;20046;-61
2022/06/29 13:19:21;;;;;;;27.38;8.15;;;;;;;;;;4972674;28;20049;-62
2022/06/29 13:21:48;;;;;;;38.35;8.77;;;;;;;;;;4973530;28;20057;-62
2022/06/29 13:24:14;;;;;;;24.75;7.82;;;;;;;;;;4973706;28;20074;-62
2022/06/29 13:26:41;;;;;;;52.78;9.85;;;;;;;;;;4977621;28;20051;-61
2022/06/29 13:29:08;;;;;;;41.00;8.93;;;;;;;;;;4974039;28;20448;-61
2022/06/29 13:31:39;;;;;;;45.65;8.60;;;;;;;;;;4973417;28;20035;-62
2022/06/29 13:34:06;;;;;;;214.13;18.98;;;;;;;;;;4973519;28;20035;-62
2022/06/29 13:36:32;;;;;;;44.70;9.05;;;;;;;;;;4973373;28;20035;-61
2022/06/29 13:38:59;;;;;;;55.05;10.23;;;;;;;;;;4972836;28;20101;-61
2022/06/29 13:41:25;;;;;;;23.50;6.95;;;;;;;;;;4972426;28;20061;-62
2022/06/29 13:43:52;;;;;;;24.98;7.50;;;;;;;;;;4973122;28;20043;-61
2022/06/29 13:46:19;;;;;;;30.70;8.00;;;;;;;;;;4972953;28;20066;-62
2022/06/29 13:48:45;;;;;;;59.40;10.02;;;;;;;;;;4973013;28;20042;-61
2022/06/29 13:51:12;;;;;;;44.17;9.05;;;;;;;;;;4973066;28;20078;-61
2022/06/29 13:53:39;;;;;;;41.50;8.30;;;;;;;;;;4974177;28;20047;-61
2022/06/29 13:56:05;;;;;;;59.67;10.23;;;;;;;;;;4973400;28;20046;-61
2022/06/29 13:58:32;;;;;;;30.85;7.50;;;;;;;;;;4973550;28;20104;-61
2022/06/29 14:00:59;;;;;;;86.60;11.90;;;;;;;;;;4972481;28;20051;-61
2022/06/29 14:03:26;;;;;;;28.35;7.53;;;;;;;;;;4972703;28;20443;-62
2022/06/29 14:05:53;;;;;;;113.15;12.60;;;;;;;;;;4973010;28;20490;-61
2022/06/29 14:08:20;;;;;;;29.73;7.82;;;;;;;;;;4972398;28;20098;-61
2022/06/29 14:11:06;;;;;;;77.85;10.27;;;;;;;;;;4972930;28;20046;-61
2022/06/29 14:13:34;;;;;;;38.67;7.68;;;;;;;;;;4972708;28;20041;-61
2022/06/29 14:16:01;;;;;;;31.92;8.43;;;;;;;;;;4972599;28;20074;-63
2022/06/29 14:18:27;;;;;;;41.80;8.35;;;;;;;;;;4971529;28;20038;-61
2022/06/29 14:20:56;;;;;;;73.80;10.25;;;;;;;;;;4970998;28;20047;-62
2022/06/29 14:23:23;;;;;;;57.17;9.27;;;;;;;;;;4969357;28;20051;-61
2022/06/29 14:25:50;;;;;;;61.97;9.60;;;;;;;;;;4969372;28;20094;-62
2022/06/29 14:28:17;;;;;;;89.88;11.45;;;;;;;;;;4970020;28;20544;-61
2022/06/29 14:30:44;;;;;;;75.15;10.43;;;;;;;;;;4969286;28;20051;-61
2022/06/29 14:33:11;;;;;;;83.07;10.55;;;;;;;;;;4969477;28;20114;-61
2022/06/29 14:35:38;;;;;;;58.45;9.35;;;;;;;;;;4968423;28;20074;-61
2022/06/29 14:38:05;;;;;;;33.65;8.07;;;;;;;;;;4971910;28;20049;-61
2022/06/29 14:40:32;;;;;;;22.05;6.93;;;;;;;;;;4970494;28;20566;-61